Time;durP1;ratioP1;P1;durP2;ratioP2;P2;SDS_P1;SDS_P2;PMS_P1;PMS_P2;Temp;Humidity;BMP_temperature;BMP_pressure;BME280_temperature;BME280_humidity;BME280_pressure;Samples;Min_cycle;Max_cycle;Signal;HPM_P1;HPM_P2
2021/10/06 00:01:39;;;;;;;0.10;0.10;;;12.30;99.90;;;;;;5088266;28;20180;-81
2021/10/06 00:04:05;;;;;;;0.20;0.20;;;12.40;99.90;;;;;;5085804;28;20274;-81
2021/10/06 00:06:31;;;;;;;0.10;0.10;;;12.50;99.90;;;;;;5096126;28;20172;-81
2021/10/06 00:08:56;;;;;;;0.10;0.10;;;12.60;99.90;;;;;;5080286;28;20207;-81
2021/10/06 00:11:22;;;;;;;0.10;0.10;;;12.60;99.90;;;;;;5091218;28;20559;-81
2021/10/06 00:13:48;;;;;;;0.10;0.10;;;12.70;99.90;;;;;;5088653;28;20211;-80
2021/10/06 00:16:15;;;;;;;0.10;0.10;;;12.70;99.90;;;;;;5093936;28;20180;-81
2021/10/06 00:18:42;;;;;;;0.00;0.00;;;12.70;99.90;;;;;;5089717;28;20586;-81
2021/10/06 00:21:08;;;;;;;0.13;0.13;;;12.70;99.90;;;;;;5083481;28;20182;-81
2021/10/06 00:23:33;;;;;;;0.00;0.00;;;12.70;99.90;;;;;;5087107;28;20294;-81
2021/10/06 00:26:00;;;;;;;0.30;0.10;;;12.70;99.90;;;;;;5090152;28;20600;-81
2021/10/06 00:28:27;;;;;;;0.50;0.20;;;12.80;99.90;;;;;;5089115;28;20215;-81
2021/10/06 00:30:52;;;;;;;0.10;0.10;;;12.80;99.90;;;;;;5089676;28;20184;-80
2021/10/06 00:33:18;;;;;;;0.10;0.10;;;12.80;99.90;;;;;;5082575;28;20173;-81
2021/10/06 00:35:44;;;;;;;0.30;0.27;;;12.70;99.90;;;;;;5093665;28;20607;-81
2021/10/06 00:38:09;;;;;;;0.27;0.27;;;12.70;99.90;;;;;;5083920;28;20204;-80
2021/10/06 00:40:35;;;;;;;0.30;0.23;;;12.70;99.90;;;;;;5088886;28;20272;-80
2021/10/06 00:43:00;;;;;;;0.13;0.13;;;12.60;99.90;;;;;;5082588;28;20176;-81
2021/10/06 00:45:26;;;;;;;0.10;0.10;;;12.70;99.90;;;;;;5088427;28;20238;-80
2021/10/06 00:47:52;;;;;;;0.10;0.10;;;12.60;99.90;;;;;;5086950;28;20203;-81
2021/10/06 00:50:17;;;;;;;0.10;0.10;;;12.70;99.90;;;;;;5086632;28;20188;-81
2021/10/06 00:52:45;;;;;;;0.03;0.03;;;12.70;99.90;;;;;;5077227;28;20743;-81
2021/10/06 00:55:13;;;;;;;0.40;0.40;;;12.70;99.90;;;;;;5096860;28;20199;-81
2021/10/06 00:57:39;;;;;;;0.10;0.10;;;12.80;99.90;;;;;;5094276;28;20312;-80
2021/10/06 01:00:05;;;;;;;0.10;0.10;;;12.80;99.90;;;;;;5093549;28;20213;-81
2021/10/06 01:02:31;;;;;;;0.20;0.20;;;12.80;99.90;;;;;;5093681;28;20192;-81
2021/10/06 01:04:57;;;;;;;1.63;1.53;;;12.80;99.90;;;;;;5074208;28;20211;-80
2021/10/06 01:07:23;;;;;;;0.10;0.10;;;12.80;99.90;;;;;;5069846;28;20180;-80
2021/10/06 01:09:48;;;;;;;0.00;0.00;;;12.70;99.90;;;;;;5083356;28;20210;-81
2021/10/06 01:12:14;;;;;;;0.77;0.20;;;12.60;99.90;;;;;;5087298;28;20191;-80
2021/10/06 01:14:40;;;;;;;0.57;0.20;;;12.60;99.90;;;;;;5068378;28;20197;-80
2021/10/06 01:17:06;;;;;;;0.10;0.10;;;12.50;99.90;;;;;;5077970;28;20182;-81
2021/10/06 01:19:32;;;;;;;0.00;0.00;;;12.40;99.90;;;;;;5082187;28;20723;-80
2021/10/06 01:21:58;;;;;;;0.10;0.10;;;12.40;99.90;;;;;;5093549;28;20182;-81
2021/10/06 01:24:25;;;;;;;0.00;0.00;;;12.40;99.90;;;;;;5083470;28;20212;-81
2021/10/06 01:26:51;;;;;;;0.10;0.10;;;12.40;99.90;;;;;;5093571;28;20194;-81
2021/10/06 01:29:17;;;;;;;0.07;0.07;;;12.50;99.90;;;;;;5084306;28;20260;-80
2021/10/06 01:31:44;;;;;;;0.17;0.17;;;12.50;99.90;;;;;;5083792;28;20177;-80
2021/10/06 01:34:10;;;;;;;0.03;0.03;;;12.40;99.90;;;;;;5088842;28;20197;-81
2021/10/06 01:36:37;;;;;;;0.10;0.10;;;12.40;99.90;;;;;;5082938;28;20179;-81
2021/10/06 01:39:07;;;;;;;0.10;0.10;;;12.50;99.90;;;;;;5088127;28;20172;-80
2021/10/06 01:41:36;;;;;;;0.30;0.30;;;12.50;99.90;;;;;;5093932;28;20204;-80
2021/10/06 01:44:03;;;;;;;0.10;0.10;;;12.30;99.90;;;;;;5081485;28;20625;-81
2021/10/06 01:46:30;;;;;;;0.10;0.10;;;12.30;99.90;;;;;;5082028;28;20171;-81
2021/10/06 01:48:56;;;;;;;0.07;0.07;;;12.30;99.90;;;;;;5090724;28;20179;-80
2021/10/06 01:51:23;;;;;;;0.10;0.10;;;12.40;99.90;;;;;;5080906;28;20717;-81
2021/10/06 01:53:49;;;;;;;0.23;0.20;;;12.30;99.90;;;;;;5090982;28;20210;-81
2021/10/06 01:56:14;;;;;;;0.00;0.00;;;12.40;99.90;;;;;;5079911;28;20556;-80
2021/10/06 01:58:40;;;;;;;2.37;0.40;;;12.50;99.90;;;;;;5084347;28;20619;-81
2021/10/06 02:01:06;;;;;;;0.43;0.43;;;12.60;99.90;;;;;;5092051;28;20693;-80
2021/10/06 02:03:31;;;;;;;0.10;0.10;;;12.60;99.90;;;;;;5094461;28;20205;-80
2021/10/06 02:05:57;;;;;;;0.20;0.20;;;12.60;99.90;;;;;;5086126;28;20558;-81
2021/10/06 02:08:23;;;;;;;0.20;0.20;;;12.50;99.90;;;;;;5081240;28;20176;-80
2021/10/06 02:10:49;;;;;;;0.10;0.10;;;12.50;99.90;;;;;;5086442;28;20451;-81
2021/10/06 02:13:15;;;;;;;0.10;0.10;;;12.60;99.90;;;;;;5089760;28;20603;-80
2021/10/06 02:15:41;;;;;;;0.07;0.07;;;12.60;99.90;;;;;;5091336;28;20302;-80
2021/10/06 02:18:07;;;;;;;0.03;0.03;;;12.70;99.90;;;;;;5106694;28;20178;-81
2021/10/06 02:20:33;;;;;;;0.10;0.10;;;12.60;99.90;;;;;;5084391;28;20234;-82
2021/10/06 02:22:59;;;;;;;0.20;0.20;;;12.60;99.90;;;;;;5085512;28;20650;-81
2021/10/06 02:25:25;;;;;;;0.10;0.10;;;12.60;99.90;;;;;;5084066;28;20243;-80
2021/10/06 02:27:51;;;;;;;0.10;0.10;;;12.70;99.90;;;;;;5082388;28;20190;-80
2021/10/06 02:30:17;;;;;;;0.10;0.10;;;12.80;99.90;;;;;;5089439;28;20640;-81
2021/10/06 02:32:43;;;;;;;0.10;0.10;;;12.80;99.90;;;;;;5091610;28;20187;-80
2021/10/06 02:35:09;;;;;;;0.00;0.00;;;12.90;99.90;;;;;;5086091;28;20233;-80
2021/10/06 02:37:36;;;;;;;0.03;0.03;;;12.90;99.90;;;;;;5087092;28;20189;-80
2021/10/06 02:40:04;;;;;;;0.20;0.20;;;12.90;99.90;;;;;;5083652;28;20634;-81
2021/10/06 02:42:29;;;;;;;0.10;0.10;;;12.80;99.90;;;;;;5085556;28;20241;-80
2021/10/06 02:44:55;;;;;;;0.10;0.10;;;12.90;99.90;;;;;;5096618;28;20211;-81
2021/10/06 02:47:20;;;;;;;2.13;0.23;;;12.80;99.90;;;;;;5085009;28;20248;-80
2021/10/06 02:49:46;;;;;;;0.00;0.00;;;12.80;99.90;;;;;;5083564;28;20175;-81
2021/10/06 02:52:11;;;;;;;0.10;0.10;;;12.90;99.90;;;;;;5082224;28;20874;-80
2021/10/06 02:54:37;;;;;;;0.10;0.10;;;12.90;99.90;;;;;;5082307;28;20210;-80
2021/10/06 02:57:04;;;;;;;0.10;0.10;;;12.80;99.90;;;;;;5087436;28;20191;-81
2021/10/06 02:59:30;;;;;;;0.03;0.03;;;12.80;99.90;;;;;;5086916;28;20184;-80
2021/10/06 03:01:55;;;;;;;0.10;0.10;;;12.70;99.90;;;;;;5072102;28;20275;-80
2021/10/06 03:04:22;;;;;;;1.10;0.30;;;12.50;99.90;;;;;;5079715;28;20243;-81
2021/10/06 03:06:48;;;;;;;0.20;0.20;;;12.40;99.90;;;;;;5090227;28;20193;-80
2021/10/06 03:09:14;;;;;;;0.30;0.30;;;12.20;99.90;;;;;;5080635;28;20264;-81
2021/10/06 03:11:40;;;;;;;0.10;0.10;;;12.20;99.90;;;;;;5089648;28;20188;-81
2021/10/06 03:14:05;;;;;;;0.03;0.03;;;12.10;99.90;;;;;;5084123;28;20687;-80
2021/10/06 03:16:31;;;;;;;0.20;0.20;;;12.00;99.90;;;;;;5085945;28;20336;-81
2021/10/06 03:18:56;;;;;;;0.10;0.10;;;12.00;99.90;;;;;;5084513;28;20184;-81
2021/10/06 03:21:22;;;;;;;0.27;0.27;;;11.90;99.90;;;;;;5092250;28;20292;-80
2021/10/06 03:23:47;;;;;;;0.13;0.13;;;11.90;99.90;;;;;;5085210;28;20240;-80
2021/10/06 03:26:13;;;;;;;0.10;0.10;;;11.80;99.90;;;;;;5090648;28;20190;-80
2021/10/06 03:28:38;;;;;;;0.20;0.20;;;11.80;99.90;;;;;;5084065;28;20483;-81
2021/10/06 03:31:04;;;;;;;0.10;0.10;;;11.90;99.90;;;;;;5088565;28;20638;-81
2021/10/06 03:33:30;;;;;;;0.03;0.03;;;11.90;99.90;;;;;;5083630;28;20184;-80
2021/10/06 03:35:56;;;;;;;0.20;0.20;;;11.90;99.90;;;;;;5090282;28;20177;-80
2021/10/06 03:38:21;;;;;;;0.00;0.00;;;11.90;99.90;;;;;;5089294;28;20202;-80
2021/10/06 03:40:47;;;;;;;0.10;0.10;;;11.90;99.90;;;;;;5082659;28;20272;-80
2021/10/06 03:43:13;;;;;;;0.07;0.07;;;11.90;99.90;;;;;;5068166;28;20191;-81
2021/10/06 03:45:38;;;;;;;0.17;0.17;;;11.80;99.90;;;;;;5074565;28;20215;-81
2021/10/06 03:48:04;;;;;;;0.20;0.20;;;11.90;99.90;;;;;;5083449;28;20654;-80
2021/10/06 03:50:30;;;;;;;0.10;0.10;;;12.00;99.90;;;;;;5084339;28;20192;-80
2021/10/06 03:52:55;;;;;;;0.10;0.10;;;12.00;99.90;;;;;;5093829;28;20540;-80
2021/10/06 03:55:21;;;;;;;0.20;0.20;;;12.10;99.90;;;;;;5102099;28;20203;-81
2021/10/06 03:57:47;;;;;;;1.27;0.83;;;12.10;99.90;;;;;;5088871;28;20208;-80
2021/10/06 04:00:13;;;;;;;0.10;0.10;;;12.10;99.90;;;;;;5088514;28;20181;-80
2021/10/06 04:02:40;;;;;;;0.03;0.03;;;12.10;99.90;;;;;;5088199;28;20672;-80
2021/10/06 04:05:07;;;;;;;0.20;0.20;;;12.00;99.90;;;;;;5087378;28;20558;-80
2021/10/06 04:07:33;;;;;;;0.10;0.10;;;12.00;99.90;;;;;;5074742;28;20184;-80
2021/10/06 04:09:59;;;;;;;0.43;0.43;;;12.10;99.90;;;;;;5083599;28;20283;-80
2021/10/06 04:12:24;;;;;;;0.10;0.10;;;12.10;99.90;;;;;;5089328;28;20175;-80
2021/10/06 04:14:50;;;;;;;0.23;0.20;;;12.10;99.90;;;;;;5083085;28;20287;-80
2021/10/06 04:17:15;;;;;;;0.10;0.10;;;12.10;99.90;;;;;;5095609;28;20252;-81
2021/10/06 04:19:41;;;;;;;0.60;0.60;;;12.10;99.90;;;;;;5086358;28;20185;-80
2021/10/06 04:22:06;;;;;;;0.10;0.10;;;12.10;99.90;;;;;;5086651;28;20183;-80
2021/10/06 04:24:32;;;;;;;0.10;0.10;;;12.10;99.90;;;;;;5077590;28;20224;-80
2021/10/06 04:26:58;;;;;;;0.13;0.13;;;12.00;99.90;;;;;;5094825;28;20571;-80
2021/10/06 04:29:23;;;;;;;0.10;0.10;;;12.10;99.90;;;;;;5093825;28;20188;-80
2021/10/06 04:31:49;;;;;;;0.40;0.40;;;12.10;99.90;;;;;;5090767;28;20185;-80
2021/10/06 04:34:14;;;;;;;0.40;0.20;;;12.20;99.90;;;;;;5079247;28;20218;-81
2021/10/06 04:36:41;;;;;;;0.00;0.00;;;12.20;99.90;;;;;;5089348;28;20189;-81
2021/10/06 04:39:07;;;;;;;0.10;0.10;;;12.30;99.90;;;;;;5084768;28;20235;-81
2021/10/06 04:41:33;;;;;;;0.10;0.10;;;12.30;99.90;;;;;;5079758;28;20187;-81
2021/10/06 04:44:01;;;;;;;0.10;0.10;;;12.40;99.90;;;;;;5092740;28;20230;-80
2021/10/06 04:46:27;;;;;;;0.10;0.10;;;12.40;99.90;;;;;;5076950;28;20217;-81
2021/10/06 04:48:53;;;;;;;0.20;0.20;;;12.30;99.90;;;;;;5088992;28;20190;-82
2021/10/06 04:51:18;;;;;;;1.50;0.27;;;12.20;99.90;;;;;;5090108;28;20184;-81
2021/10/06 04:53:44;;;;;;;2.03;0.23;;;12.10;99.90;;;;;;5091220;28;20233;-81
2021/10/06 04:56:09;;;;;;;0.17;0.17;;;12.10;99.90;;;;;;5080841;28;20203;-81
2021/10/06 04:58:35;;;;;;;0.23;0.23;;;12.00;99.90;;;;;;5084673;28;20577;-81
2021/10/06 05:01:01;;;;;;;0.63;0.63;;;12.00;99.90;;;;;;5100562;28;20190;-81
2021/10/06 05:03:26;;;;;;;0.20;0.20;;;11.80;99.90;;;;;;5103992;28;20184;-81
2021/10/06 05:05:52;;;;;;;0.00;0.00;;;11.80;99.90;;;;;;5081305;28;20217;-82
2021/10/06 05:08:17;;;;;;;0.00;0.00;;;11.70;99.90;;;;;;5082131;28;20189;-82
2021/10/06 05:10:43;;;;;;;0.10;0.10;;;11.70;99.90;;;;;;5078938;28;20694;-82
2021/10/06 05:13:09;;;;;;;0.10;0.10;;;11.60;99.90;;;;;;5088343;28;20255;-82
2021/10/06 05:15:34;;;;;;;0.10;0.10;;;11.60;99.90;;;;;;5086037;28;20212;-81
2021/10/06 05:18:00;;;;;;;0.13;0.13;;;11.60;99.90;;;;;;5087043;28;20765;-80
2021/10/06 05:20:26;;;;;;;0.33;0.13;;;11.60;99.90;;;;;;5077252;28;20265;-84
2021/10/06 05:22:52;;;;;;;0.47;0.47;;;11.70;99.90;;;;;;5080028;28;20192;-82
2021/10/06 05:25:18;;;;;;;0.23;0.20;;;11.70;99.90;;;;;;5078462;28;20318;-82
2021/10/06 05:27:43;;;;;;;0.10;0.10;;;11.90;99.90;;;;;;5077350;28;20242;-83
2021/10/06 05:30:09;;;;;;;0.10;0.10;;;11.90;99.90;;;;;;5085940;28;20186;-83
2021/10/06 05:32:35;;;;;;;1.63;0.50;;;11.90;99.90;;;;;;5085005;28;20329;-82
2021/10/06 05:35:02;;;;;;;0.10;0.10;;;11.70;99.90;;;;;;5086828;28;20728;-83
2021/10/06 05:37:27;;;;;;;1.30;0.23;;;11.70;99.90;;;;;;5080889;28;20216;-83
2021/10/06 05:39:53;;;;;;;0.63;0.63;;;11.60;99.90;;;;;;5076268;28;20210;-82
2021/10/06 05:42:19;;;;;;;0.10;0.10;;;11.60;99.90;;;;;;5094617;28;20188;-82
2021/10/06 05:44:45;;;;;;;0.43;0.30;;;11.60;99.90;;;;;;5086103;28;20632;-82
2021/10/06 05:47:10;;;;;;;0.10;0.10;;;11.70;99.90;;;;;;5084508;28;20177;-82
2021/10/06 05:49:36;;;;;;;0.20;0.20;;;11.80;99.90;;;;;;5090756;28;20554;-83
2021/10/06 05:52:01;;;;;;;0.30;0.30;;;11.90;99.90;;;;;;5086886;28;20249;-83
2021/10/06 05:54:27;;;;;;;0.10;0.10;;;12.00;99.90;;;;;;5082031;28;20214;-83
2021/10/06 05:56:53;;;;;;;0.10;0.10;;;12.00;99.90;;;;;;5092156;28;20192;-82
2021/10/06 05:59:18;;;;;;;0.20;0.20;;;12.10;99.90;;;;;;5088982;28;20192;-83
2021/10/06 06:01:44;;;;;;;0.20;0.20;;;12.10;99.90;;;;;;5084240;28;20637;-82
2021/10/06 06:04:09;;;;;;;0.13;0.13;;;12.10;99.90;;;;;;5076679;28;20230;-82
2021/10/06 06:06:35;;;;;;;0.20;0.20;;;12.00;99.90;;;;;;5095200;28;20552;-83
2021/10/06 06:09:01;;;;;;;0.30;0.30;;;12.10;99.90;;;;;;5090158;28;20176;-82
2021/10/06 06:11:26;;;;;;;0.10;0.10;;;12.10;99.90;;;;;;5086643;28;20206;-83
2021/10/06 06:13:53;;;;;;;7.63;0.20;;;12.10;99.90;;;;;;5091329;28;20358;-82
2021/10/06 06:16:19;;;;;;;1.53;0.70;;;12.20;99.90;;;;;;5085539;28;20203;-81
2021/10/06 06:18:44;;;;;;;0.20;0.20;;;12.20;99.90;;;;;;5080561;28;20593;-81
2021/10/06 06:21:11;;;;;;;0.10;0.10;;;12.30;99.90;;;;;;5081064;28;20187;-81
2021/10/06 06:23:37;;;;;;;0.10;0.10;;;12.30;99.90;;;;;;5081394;28;20253;-81
2021/10/06 06:26:02;;;;;;;0.40;0.30;;;12.40;99.90;;;;;;5090712;28;20598;-81
2021/10/06 06:28:28;;;;;;;0.13;0.10;;;12.40;99.90;;;;;;5080941;28;20187;-81
2021/10/06 06:30:54;;;;;;;0.10;0.10;;;12.50;99.90;;;;;;5082292;28;20183;-81
2021/10/06 06:33:19;;;;;;;0.17;0.17;;;12.60;99.90;;;;;;5066531;28;20199;-82
2021/10/06 06:35:45;;;;;;;0.20;0.20;;;12.60;99.90;;;;;;5074809;28;20193;-81
2021/10/06 06:38:11;;;;;;;0.20;0.20;;;12.70;99.90;;;;;;5083568;28;20202;-81
2021/10/06 06:40:40;;;;;;;0.23;0.23;;;12.80;99.90;;;;;;5074557;28;20187;-81
2021/10/06 06:43:10;;;;;;;0.10;0.10;;;12.80;99.90;;;;;;5087341;28;20208;-82
2021/10/06 06:45:36;;;;;;;0.10;0.10;;;12.80;99.90;;;;;;5074728;28;20233;-82
2021/10/06 06:48:05;;;;;;;0.50;0.23;;;12.90;99.90;;;;;;5086811;28;20192;-82
2021/10/06 06:50:30;;;;;;;0.10;0.10;;;12.90;99.90;;;;;;5073136;28;20179;-81
2021/10/06 06:52:56;;;;;;;0.10;0.10;;;13.00;99.90;;;;;;5074218;28;20288;-81
2021/10/06 06:55:23;;;;;;;0.10;0.10;;;12.90;99.90;;;;;;5073712;28;20668;-82
2021/10/06 06:57:49;;;;;;;0.20;0.20;;;12.90;99.90;;;;;;5078285;28;20609;-82
2021/10/06 07:00:15;;;;;;;0.30;0.30;;;13.00;99.90;;;;;;5084155;28;20197;-82
2021/10/06 07:02:41;;;;;;;1.03;0.30;;;13.00;99.90;;;;;;5083951;28;20186;-81
2021/10/06 07:05:07;;;;;;;0.33;0.27;;;13.10;99.90;;;;;;5077915;28;20217;-81
2021/10/06 07:07:32;;;;;;;0.03;0.03;;;13.20;99.90;;;;;;5081731;28;20212;-82
2021/10/06 07:09:58;;;;;;;0.10;0.10;;;13.10;99.90;;;;;;5071983;28;20653;-81
2021/10/06 07:12:24;;;;;;;0.20;0.20;;;13.20;99.90;;;;;;5092744;28;20182;-82
2021/10/06 07:14:50;;;;;;;0.70;0.70;;;13.20;99.90;;;;;;5086682;28;20207;-81
2021/10/06 07:17:16;;;;;;;0.40;0.40;;;13.20;99.90;;;;;;5086525;28;20217;-82
2021/10/06 07:19:42;;;;;;;0.47;0.47;;;13.20;99.90;;;;;;5089753;28;20199;-82
2021/10/06 07:22:08;;;;;;;0.20;0.20;;;13.20;99.90;;;;;;5087285;28;20216;-87
2021/10/06 07:24:34;;;;;;;0.37;0.17;;;13.10;99.90;;;;;;5075869;28;20720;-82
2021/10/06 07:27:00;;;;;;;0.30;0.30;;;13.10;99.90;;;;;;5084708;28;20203;-82
2021/10/06 07:29:26;;;;;;;0.10;0.10;;;13.20;99.90;;;;;;5081628;28;20188;-82
2021/10/06 07:31:52;;;;;;;7.10;0.30;;;13.30;99.90;;;;;;5106882;28;20184;-82
2021/10/06 07:34:18;;;;;;;0.10;0.10;;;13.30;99.90;;;;;;5080259;28;20568;-81
2021/10/06 07:36:43;;;;;;;0.30;0.30;;;13.30;99.90;;;;;;5070405;28;20189;-80
2021/10/06 07:39:09;;;;;;;0.10;0.10;;;13.50;99.90;;;;;;5077757;28;20277;-81
2021/10/06 07:41:35;;;;;;;0.20;0.20;;;13.60;99.90;;;;;;5068775;28;20176;-82
2021/10/06 07:44:01;;;;;;;0.30;0.30;;;13.70;99.90;;;;;;5080610;28;20714;-81
2021/10/06 07:46:27;;;;;;;0.10;0.10;;;13.80;99.90;;;;;;5075053;28;20181;-82
2021/10/06 07:48:53;;;;;;;0.10;0.10;;;13.60;99.90;;;;;;5086840;28;20268;-82
2021/10/06 07:51:19;;;;;;;0.80;0.80;;;13.50;99.90;;;;;;5077460;28;20171;-82
2021/10/06 07:53:46;;;;;;;0.10;0.10;;;13.40;99.90;;;;;;5085695;28;20204;-82
2021/10/06 07:56:12;;;;;;;0.57;0.57;;;13.20;99.90;;;;;;5091732;28;20184;-81
2021/10/06 07:58:38;;;;;;;0.10;0.10;;;13.30;99.90;;;;;;5090477;28;20186;-82
2021/10/06 08:01:03;;;;;;;0.30;0.30;;;13.40;99.90;;;;;;5087657;28;20245;-82
2021/10/06 08:03:29;;;;;;;0.10;0.10;;;13.80;99.90;;;;;;5079359;28;20174;-82
2021/10/06 08:05:55;;;;;;;0.73;0.20;;;14.20;99.90;;;;;;5081666;28;20182;-82
2021/10/06 08:08:26;;;;;;;0.10;0.10;;;14.40;99.90;;;;;;5088053;28;20222;-82
2021/10/06 08:10:55;;;;;;;1.07;1.00;;;14.60;99.90;;;;;;5085708;28;20184;-82
2021/10/06 08:13:23;;;;;;;0.20;0.20;;;14.60;99.90;;;;;;5087488;28;20181;-82
2021/10/06 08:15:50;;;;;;;0.20;0.20;;;14.50;99.90;;;;;;5086067;28;20193;-81
2021/10/06 08:18:16;;;;;;;0.10;0.10;;;14.20;99.90;;;;;;5077505;28;20182;-81
2021/10/06 08:20:46;;;;;;;1.43;0.60;;;14.50;99.90;;;;;;5084392;28;20196;-83
2021/10/06 08:23:15;;;;;;;0.30;0.30;;;14.80;99.90;;;;;;5089577;28;20184;-83
2021/10/06 08:25:40;;;;;;;0.10;0.10;;;15.20;99.90;;;;;;5074246;28;20205;-82
2021/10/06 08:28:06;;;;;;;0.20;0.20;;;15.40;99.90;;;;;;5070183;28;20186;-82
2021/10/06 08:30:32;;;;;;;0.73;0.30;;;15.50;99.90;;;;;;5072600;28;20665;-82
2021/10/06 08:32:57;;;;;;;0.10;0.10;;;15.70;99.90;;;;;;5080236;28;20176;-83
2021/10/06 08:35:23;;;;;;;2.27;0.37;;;16.00;99.90;;;;;;5081632;28;20201;-82
2021/10/06 08:37:49;;;;;;;0.17;0.17;;;16.20;99.90;;;;;;5086622;28;20220;-81
2021/10/06 08:40:14;;;;;;;0.37;0.20;;;16.10;99.90;;;;;;5077830;28;20188;-82
2021/10/06 08:42:41;;;;;;;0.07;0.07;;;15.90;99.90;;;;;;5076245;28;20182;-81
2021/10/06 08:45:07;;;;;;;0.10;0.10;;;15.80;99.90;;;;;;5088710;28;20265;-82
2021/10/06 08:47:38;;;;;;;0.37;0.37;;;15.60;99.90;;;;;;5081557;28;20660;-81
2021/10/06 08:50:07;;;;;;;0.93;0.20;;;15.30;99.90;;;;;;5089060;28;20179;-81
2021/10/06 08:52:32;;;;;;;0.10;0.10;;;15.20;99.90;;;;;;5085674;28;20185;-81
2021/10/06 08:55:00;;;;;;;1.43;0.90;;;15.10;99.90;;;;;;5073244;28;20568;-81
2021/10/06 08:57:25;;;;;;;0.10;0.10;;;15.00;99.90;;;;;;5096287;28;20240;-81
2021/10/06 08:59:51;;;;;;;0.20;0.20;;;14.80;99.90;;;;;;5082125;28;20201;-81
2021/10/06 09:02:18;;;;;;;1.17;0.73;;;14.80;99.90;;;;;;5084330;28;20189;-81
2021/10/06 09:04:44;;;;;;;0.10;0.10;;;14.90;99.90;;;;;;5083546;28;20204;-81
2021/10/06 09:07:10;;;;;;;0.10;0.10;;;14.90;99.90;;;;;;5073836;28;20256;-81
2021/10/06 09:09:37;;;;;;;0.10;0.10;;;14.90;99.90;;;;;;5081998;28;20189;-81
2021/10/06 09:12:13;;;;;;;1.70;0.30;;;15.00;99.90;;;;;;5081592;28;20198;-81
2021/10/06 09:14:41;;;;;;;0.10;0.10;;;15.20;99.90;;;;;;5085026;28;20215;-81
2021/10/06 09:17:14;;;;;;;0.57;0.20;;;15.20;99.90;;;;;;5082460;28;20177;-81
2021/10/06 09:19:43;;;;;;;0.60;0.60;;;15.30;99.90;;;;;;5073178;28;20182;-81
2021/10/06 09:22:30;;;;;;;0.10;0.10;;;15.20;99.90;;;;;;5076846;28;20193;-81
2021/10/06 09:25:05;;;;;;;0.73;0.60;;;15.10;99.90;;;;;;5080818;28;20209;-82
2021/10/06 09:27:35;;;;;;;0.30;0.20;;;14.80;99.90;;;;;;5068082;28;20193;-81
2021/10/06 09:30:06;;;;;;;0.20;0.20;;;14.80;99.90;;;;;;5069295;28;20184;-81
2021/10/06 09:32:38;;;;;;;0.20;0.20;;;14.70;99.90;;;;;;5076504;28;20177;-81
2021/10/06 09:35:20;;;;;;;0.53;0.53;;;14.70;99.90;;;;;;5084317;28;20235;-81
2021/10/06 09:37:49;;;;;;;0.07;0.07;;;14.60;99.90;;;;;;5092729;28;20652;-81
2021/10/06 09:40:20;;;;;;;0.10;0.10;;;14.40;99.90;;;;;;5085373;28;20181;-82
2021/10/06 09:42:51;;;;;;;0.30;0.30;;;14.40;99.90;;;;;;5077353;28;20190;-81
2021/10/06 09:45:22;;;;;;;0.27;0.20;;;14.50;99.90;;;;;;5077737;28;20341;-82
2021/10/06 09:48:09;;;;;;;0.10;0.10;;;14.50;99.90;;;;;;5082116;28;20181;-82
2021/10/06 09:50:43;;;;;;;0.10;0.10;;;14.50;99.90;;;;;;5075953;28;20177;-81
2021/10/06 09:53:15;;;;;;;0.20;0.20;;;14.50;99.90;;;;;;5082165;28;20298;-83
2021/10/06 09:55:43;;;;;;;0.10;0.10;;;14.70;99.90;;;;;;5076728;28;20260;-83
2021/10/06 09:58:10;;;;;;;0.10;0.10;;;15.00;99.90;;;;;;5085601;28;20184;-83
2021/10/06 10:00:37;;;;;;;0.40;0.40;;;15.50;99.90;;;;;;5078681;28;20185;-83
2021/10/06 10:03:05;;;;;;;1.10;0.40;;;15.20;99.90;;;;;;5073430;28;20173;-84
2021/10/06 10:05:32;;;;;;;0.63;0.57;;;15.10;99.90;;;;;;5075792;28;20218;-83
2021/10/06 10:07:58;;;;;;;0.13;0.13;;;14.90;99.90;;;;;;5080263;28;20192;-82
2021/10/06 10:10:24;;;;;;;0.93;0.13;;;14.80;99.90;;;;;;5087832;28;20180;-83
2021/10/06 10:12:50;;;;;;;0.20;0.10;;;14.80;99.90;;;;;;5078743;28;21088;-83
2021/10/06 10:15:19;;;;;;;0.13;0.13;;;14.60;99.90;;;;;;5089394;28;20679;-83
2021/10/06 10:17:46;;;;;;;0.33;0.27;;;14.50;99.90;;;;;;5082438;28;20184;-82
2021/10/06 10:20:15;;;;;;;0.17;0.17;;;14.40;99.90;;;;;;5081453;28;20227;-82
2021/10/06 10:22:43;;;;;;;0.10;0.10;;;14.30;99.90;;;;;;5087603;28;20565;-83
2021/10/06 10:25:25;;;;;;;0.20;0.20;;;14.20;99.90;;;;;;5075353;28;20212;-82
2021/10/06 10:28:37;;;;;;;1.43;0.40;;;14.00;99.90;;;;;;5076140;28;20189;-83
2021/10/06 10:31:03;;;;;;;0.03;0.03;;;13.90;99.90;;;;;;5013301;28;20180;-82
2021/10/06 10:33:44;;;;;;;0.30;0.30;;;13.80;99.90;;;;;;5063278;28;20189;-82
2021/10/06 10:36:35;;;;;;;0.20;0.20;;;13.80;99.90;;;;;;5062763;28;20181;-82
2021/10/06 10:39:06;;;;;;;0.77;0.40;;;14.00;99.90;;;;;;5066012;28;21024;-83
2021/10/06 10:41:56;;;;;;;0.20;0.20;;;14.00;99.90;;;;;;5076986;28;20255;-83
2021/10/06 10:44:41;;;;;;;0.10;0.10;;;13.80;99.90;;;;;;5056820;28;20209;-83
2021/10/06 10:47:08;;;;;;;0.27;0.27;;;13.90;99.90;;;;;;5074166;28;20651;-82
2021/10/06 10:49:48;;;;;;;0.00;0.00;;;13.80;99.90;;;;;;5070074;28;20809;-82
2021/10/06 10:52:15;;;;;;;0.30;0.23;;;13.70;99.90;;;;;;5092609;28;20527;-81
2021/10/06 10:54:43;;;;;;;0.63;0.40;;;13.80;99.90;;;;;;5080480;28;20221;-82
2021/10/06 10:57:25;;;;;;;1.40;0.20;;;13.80;99.90;;;;;;5074724;28;20271;-81
2021/10/06 10:59:54;;;;;;;1.17;0.60;;;14.00;99.90;;;;;;5085408;28;20268;-81
2021/10/06 11:02:22;;;;;;;0.10;0.10;;;14.30;99.90;;;;;;5087735;28;20175;-82
2021/10/06 11:05:02;;;;;;;0.40;0.40;;;14.50;99.90;;;;;;5086589;28;20205;-82
2021/10/06 11:07:28;;;;;;;0.87;0.77;;;14.80;99.90;;;;;;5086532;28;20192;-82
2021/10/06 11:09:59;;;;;;;0.10;0.10;;;15.10;99.90;;;;;;5079314;28;20537;-82
2021/10/06 11:12:24;;;;;;;0.10;0.10;;;15.20;99.90;;;;;;5077613;28;20185;-81
2021/10/06 11:15:16;;;;;;;0.10;0.10;;;15.10;99.90;;;;;;5088105;28;20350;-82
2021/10/06 11:18:16;;;;;;;0.10;0.10;;;15.10;99.90;;;;;;5090529;28;20204;-81
2021/10/06 11:21:01;;;;;;;0.20;0.20;;;14.90;99.90;;;;;;5087711;28;20568;-81
2021/10/06 11:23:30;;;;;;;0.30;0.30;;;14.70;99.90;;;;;;5088250;28;20184;-81
2021/10/06 11:26:07;;;;;;;0.10;0.10;;;14.60;99.90;;;;;;5106577;28;20211;-82
2021/10/06 11:28:40;;;;;;;0.10;0.10;;;14.50;99.90;;;;;;5089232;28;20199;-82
2021/10/06 11:31:06;;;;;;;0.30;0.30;;;14.40;99.90;;;;;;5081545;28;20190;-81
2021/10/06 11:33:33;;;;;;;1.03;0.93;;;14.30;99.90;;;;;;5100176;28;20178;-81
2021/10/06 11:36:26;;;;;;;0.10;0.10;;;14.30;99.90;;;;;;5092869;28;20543;-82
2021/10/06 11:39:09;;;;;;;1.03;0.33;;;14.20;99.90;;;;;;5077772;28;20214;-82
2021/10/06 11:41:41;;;;;;;0.87;0.87;;;14.00;99.90;;;;;;5088306;28;20667;-81
2021/10/06 11:44:07;;;;;;;0.73;0.50;;;13.90;99.90;;;;;;5084878;28;20204;-81
2021/10/06 11:46:34;;;;;;;0.20;0.20;;;14.00;99.90;;;;;;5077807;28;20181;-82
2021/10/06 11:49:07;;;;;;;0.30;0.30;;;14.10;99.90;;;;;;5086631;28;20179;-81
2021/10/06 11:51:49;;;;;;;0.17;0.17;;;14.10;99.90;;;;;;5087284;28;20201;-81
2021/10/06 11:54:16;;;;;;;0.10;0.10;;;14.00;99.90;;;;;;5098334;28;20193;-82
2021/10/06 11:56:43;;;;;;;0.20;0.20;;;13.90;99.90;;;;;;5078310;28;20178;-80
2021/10/06 11:59:12;;;;;;;0.20;0.20;;;13.80;99.90;;;;;;5084672;28;20193;-82
2021/10/06 12:01:39;;;;;;;0.40;0.40;;;14.00;99.90;;;;;;5090885;28;20770;-82
2021/10/06 12:04:13;;;;;;;0.20;0.20;;;14.10;99.90;;;;;;5084563;28;20226;-82
2021/10/06 12:06:42;;;;;;;1.23;0.50;;;14.20;99.90;;;;;;5080850;28;20182;-82
2021/10/06 12:09:09;;;;;;;1.03;0.40;;;14.30;99.90;;;;;;5083108;28;20185;-83
2021/10/06 12:11:46;;;;;;;1.40;0.53;;;14.40;99.90;;;;;;5076369;28;20182;-82
2021/10/06 12:14:23;;;;;;;0.20;0.20;;;14.50;99.90;;;;;;5079074;28;20203;-82
2021/10/06 12:17:03;;;;;;;0.10;0.10;;;14.70;99.90;;;;;;5095757;28;20685;-84
2021/10/06 12:19:29;;;;;;;0.17;0.17;;;14.80;99.90;;;;;;5097039;28;20542;-83
2021/10/06 12:21:55;;;;;;;0.10;0.10;;;15.10;99.90;;;;;;5084977;28;20173;-83
2021/10/06 12:24:24;;;;;;;0.10;0.10;;;15.00;99.90;;;;;;5072887;28;20708;-84
2021/10/06 12:26:51;;;;;;;0.10;0.10;;;15.10;99.90;;;;;;5100262;28;20189;-81
2021/10/06 12:29:21;;;;;;;0.60;0.60;;;15.20;99.90;;;;;;5087604;28;20216;-81
2021/10/06 12:31:47;;;;;;;0.13;0.13;;;15.30;99.90;;;;;;5091997;28;20670;-82
2021/10/06 12:34:21;;;;;;;0.30;0.30;;;15.30;99.90;;;;;;5090155;28;20211;-82
2021/10/06 12:36:48;;;;;;;0.10;0.10;;;15.30;99.90;;;;;;5079061;28;20190;-81
2021/10/06 12:39:17;;;;;;;0.30;0.30;;;15.10;99.90;;;;;;5078891;28;20174;-82
2021/10/06 12:41:44;;;;;;;0.10;0.10;;;15.00;99.90;;;;;;5072441;28;20194;-81
2021/10/06 12:44:20;;;;;;;0.13;0.13;;;14.80;99.90;;;;;;5073523;28;20207;-81
2021/10/06 12:46:45;;;;;;;0.10;0.10;;;14.70;99.90;;;;;;5106267;28;20181;-82
2021/10/06 12:49:12;;;;;;;0.20;0.20;;;14.80;99.90;;;;;;5074669;28;20237;-81
2021/10/06 12:51:40;;;;;;;0.10;0.10;;;14.70;99.90;;;;;;5086891;28;20205;-82